createdAt,value
2023-02-13T00:01:10.332Z,7.10
2023-02-13T00:03:37.860Z,7.10
2023-02-13T00:06:05.225Z,7.10
2023-02-13T00:08:32.488Z,7.10
2023-02-13T00:11:00.088Z,7.00
2023-02-13T00:13:27.691Z,7.00
2023-02-13T00:16:04.383Z,6.90
2023-02-13T00:18:36.594Z,6.90
2023-02-13T00:21:04.014Z,6.80
2023-02-13T00:23:33.057Z,6.80
2023-02-13T00:26:02.018Z,6.80
2023-02-13T00:28:29.862Z,6.70
2023-02-13T00:31:13.507Z,6.70
2023-02-13T00:33:42.721Z,6.70
2023-02-13T00:36:13.875Z,6.60
2023-02-13T00:38:42.224Z,6.60
2023-02-13T00:41:10.397Z,6.50
2023-02-13T00:43:38.351Z,6.40
2023-02-13T00:46:06.430Z,6.30
2023-02-13T00:48:34.831Z,6.20
2023-02-13T00:51:02.527Z,6.10
2023-02-13T00:53:31.701Z,6.00
2023-02-13T00:55:59.171Z,6.00
2023-02-13T00:58:26.855Z,6.00
2023-02-13T01:00:55.645Z,6.00
2023-02-13T01:03:24.036Z,6.00
2023-02-13T01:05:51.730Z,6.00
2023-02-13T01:08:20.456Z,6.00
2023-02-13T01:10:48.831Z,6.00
2023-02-13T01:13:18.419Z,6.00
2023-02-13T01:15:46.831Z,6.00
2023-02-13T01:18:18.650Z,5.90
2023-02-13T01:20:55.415Z,5.90
2023-02-13T01:23:23.199Z,5.90
2023-02-13T01:25:52.582Z,5.90
2023-02-13T01:28:19.929Z,5.80
2023-02-13T01:30:53.954Z,5.80
2023-02-13T01:33:23.698Z,5.70
2023-02-13T01:35:51.815Z,5.60
2023-02-13T01:38:19.417Z,5.60
2023-02-13T01:40:54.316Z,5.50
2023-02-13T01:43:23.569Z,5.50
2023-02-13T01:45:56.254Z,5.50
2023-02-13T01:48:27.325Z,5.40
2023-02-13T01:51:00.820Z,5.40
2023-02-13T01:53:38.090Z,5.30
2023-02-13T01:56:15.057Z,5.30
2023-02-13T01:58:46.693Z,5.30
2023-02-13T02:01:15.117Z,5.40
2023-02-13T02:04:09.536Z,5.60
2023-02-13T02:06:58.758Z,5.60
2023-02-13T02:09:36.946Z,5.70
2023-02-13T02:12:13.729Z,5.80
2023-02-13T02:14:42.620Z,5.90
2023-02-13T02:17:11.965Z,6.00
2023-02-13T02:19:47.262Z,6.00
2023-02-13T02:22:15.194Z,6.10
2023-02-13T02:25:20.792Z,6.20
2023-02-13T02:28:22.802Z,6.30
2023-02-13T02:31:10.535Z,6.40
2023-02-13T02:33:56.267Z,6.50
2023-02-13T02:36:39.702Z,6.50
2023-02-13T02:39:21.039Z,6.60
2023-02-13T02:42:14.219Z,6.60
2023-02-13T02:44:45.254Z,6.60
2023-02-13T02:47:44.849Z,6.60
2023-02-13T02:50:30.343Z,6.60
2023-02-13T02:53:35.795Z,6.60
2023-02-13T02:56:25.369Z,6.70
2023-02-13T02:59:17.069Z,6.80
2023-02-13T03:02:04.464Z,6.80
2023-02-13T03:04:55.055Z,6.90
2023-02-13T03:07:22.301Z,6.90
2023-02-13T03:10:15.100Z,6.90
2023-02-13T03:13:13.032Z,7.00
2023-02-13T03:16:01.832Z,7.00
2023-02-13T03:18:54.279Z,7.10
2023-02-13T03:21:51.893Z,7.10
2023-02-13T03:25:00.854Z,7.10
2023-02-13T03:28:11.955Z,7.10
2023-02-13T03:31:16.454Z,7.10
2023-02-13T03:34:04.013Z,7.10
2023-02-13T03:37:12.268Z,7.20
2023-02-13T03:39:59.720Z,7.20
2023-02-13T03:42:37.236Z,7.10
2023-02-13T03:45:29.585Z,7.10
2023-02-13T03:47:59.158Z,7.10
2023-02-13T03:50:28.650Z,7.10
2023-02-13T03:53:09.873Z,7.20
2023-02-13T03:56:01.542Z,7.20
2023-02-13T03:59:07.245Z,7.20
2023-02-13T04:01:37.290Z,7.20
2023-02-13T04:04:13.475Z,7.20
2023-02-13T04:06:58.830Z,7.30
2023-02-13T04:09:28.122Z,7.30
2023-02-13T04:11:58.391Z,7.20
2023-02-13T04:14:33.508Z,7.20
2023-02-13T04:17:18.102Z,7.30
2023-02-13T04:19:45.397Z,7.30
2023-02-13T04:22:13.270Z,7.20
2023-02-13T04:24:40.660Z,7.20
2023-02-13T04:27:08.182Z,7.10
2023-02-13T04:29:35.410Z,7.10
2023-02-13T04:32:02.712Z,7.10
2023-02-13T04:34:30.074Z,7.10
2023-02-13T04:36:57.312Z,7.10
2023-02-13T04:39:24.562Z,7.10
2023-02-13T04:41:51.817Z,7.10
2023-02-13T04:44:19.056Z,7.10
2023-02-13T04:46:46.291Z,7.10
2023-02-13T04:49:13.906Z,7.10
2023-02-13T04:51:41.272Z,7.20
2023-02-13T04:54:08.670Z,7.20
2023-02-13T04:56:35.921Z,7.20
2023-02-13T04:59:03.566Z,7.20
2023-02-13T05:01:31.039Z,7.20
2023-02-13T05:03:58.297Z,7.20
2023-02-13T05:06:25.535Z,7.20
2023-02-13T05:08:52.791Z,7.10
2023-02-13T05:11:20.020Z,7.00
2023-02-13T05:13:47.264Z,7.00
2023-02-13T05:16:14.582Z,7.00
2023-02-13T05:18:41.865Z,7.00
2023-02-13T05:21:27.724Z,7.00
2023-02-13T05:23:55.007Z,7.00
2023-02-13T05:26:22.240Z,7.00
2023-02-13T05:29:08.132Z,7.00
2023-02-13T05:31:35.892Z,7.00
2023-02-13T05:34:03.242Z,7.00
2023-02-13T05:36:30.472Z,7.00
2023-02-13T05:38:57.899Z,7.10
2023-02-13T05:41:25.316Z,7.10
2023-02-13T05:43:52.571Z,7.10
2023-02-13T05:46:19.978Z,7.10
2023-02-13T05:48:47.665Z,7.10
2023-02-13T05:51:15.097Z,7.10
2023-02-13T05:53:42.491Z,7.00
2023-02-13T05:56:09.795Z,7.10
2023-02-13T05:58:37.559Z,7.10
2023-02-13T06:01:05.280Z,7.00
2023-02-13T06:03:33.349Z,7.10
2023-02-13T06:06:00.653Z,7.00
2023-02-13T06:08:28.121Z,7.10
2023-02-13T06:10:55.622Z,7.10
2023-02-13T06:13:23.164Z,7.10
2023-02-13T06:15:50.921Z,7.10
2023-02-13T06:18:18.408Z,7.10
2023-02-13T06:20:45.974Z,7.10
2023-02-13T06:23:13.481Z,7.10
2023-02-13T06:25:41.009Z,7.10
2023-02-13T06:28:08.816Z,7.20
2023-02-13T06:30:36.181Z,7.20
2023-02-13T06:33:03.593Z,7.30
2023-02-13T06:35:30.891Z,7.20
2023-02-13T06:37:58.256Z,7.30
2023-02-13T06:40:26.038Z,7.30
2023-02-13T06:42:53.498Z,7.30
2023-02-13T06:45:20.795Z,7.40
2023-02-13T06:47:48.802Z,7.40
2023-02-13T06:50:18.128Z,7.40
2023-02-13T06:52:50.596Z,7.40
2023-02-13T06:55:18.777Z,7.50
2023-02-13T06:57:46.832Z,7.50
2023-02-13T07:00:16.620Z,7.50
2023-02-13T07:02:45.458Z,7.60
2023-02-13T07:05:14.008Z,7.60
2023-02-13T07:07:42.871Z,7.60
2023-02-13T07:10:13.486Z,7.60
2023-02-13T07:12:40.843Z,7.60
2023-02-13T07:15:08.538Z,7.60
2023-02-13T07:17:36.362Z,7.70
2023-02-13T07:20:05.059Z,7.70
2023-02-13T07:22:33.505Z,7.70
2023-02-13T07:25:01.477Z,7.70
2023-02-13T07:27:29.469Z,7.80
2023-02-13T07:29:57.902Z,7.80
2023-02-13T07:32:26.058Z,7.90
2023-02-13T07:35:01.638Z,7.90
2023-02-13T07:37:31.621Z,8.00
2023-02-13T07:39:59.072Z,8.00
2023-02-13T07:42:26.415Z,8.00
2023-02-13T07:44:53.785Z,8.00
2023-02-13T07:47:21.048Z,8.10
2023-02-13T07:49:48.347Z,8.10
2023-02-13T07:52:15.611Z,8.10
2023-02-13T07:54:47.520Z,8.10
2023-02-13T07:57:16.248Z,8.20
2023-02-13T07:59:43.883Z,8.20
2023-02-13T08:02:15.555Z,8.30
2023-02-13T08:04:46.441Z,8.30
2023-02-13T08:07:15.887Z,8.40
2023-02-13T08:10:03.813Z,8.40
2023-02-13T08:12:32.582Z,8.40
2023-02-13T08:14:59.998Z,8.50
2023-02-13T08:17:27.270Z,8.50
2023-02-13T08:19:55.035Z,8.60
2023-02-13T08:22:22.435Z,8.60
2023-02-13T08:24:49.717Z,8.70
2023-02-13T08:27:17.369Z,8.80
2023-02-13T08:29:44.631Z,8.80
2023-02-13T08:32:12.535Z,8.90
2023-02-13T08:34:39.934Z,8.90
2023-02-13T08:37:07.376Z,9.00
2023-02-13T08:39:34.741Z,9.10
2023-02-13T08:42:02.018Z,9.20
2023-02-13T08:44:29.284Z,9.30
2023-02-13T08:46:56.785Z,9.30
2023-02-13T08:49:24.160Z,9.30
2023-02-13T08:51:52.764Z,9.40
2023-02-13T08:54:20.054Z,9.40
2023-02-13T08:56:47.507Z,9.40
2023-02-13T08:59:14.755Z,9.40
2023-02-13T09:01:42.277Z,9.30
2023-02-13T09:04:09.694Z,9.30
2023-02-13T09:06:37.158Z,9.30
2023-02-13T09:09:07.439Z,9.30
2023-02-13T09:11:34.747Z,9.30
2023-02-13T09:14:02.110Z,9.30
2023-02-13T09:16:29.480Z,9.30
2023-02-13T09:18:56.757Z,9.40
2023-02-13T09:21:24.010Z,9.40
2023-02-13T09:23:51.729Z,9.40
2023-02-13T09:26:20.696Z,9.40
2023-02-13T09:28:48.258Z,9.40
2023-02-13T09:31:20.782Z,9.50
2023-02-13T09:33:49.913Z,9.50
2023-02-13T09:36:21.705Z,9.50
2023-02-13T09:38:52.723Z,9.50
2023-02-13T09:41:53.947Z,9.50
2023-02-13T09:44:38.318Z,9.50
2023-02-13T09:47:29.288Z,9.50
2023-02-13T09:50:00.623Z,9.60
2023-02-13T09:52:35.772Z,9.60
2023-02-13T09:55:10.155Z,9.60
2023-02-13T09:57:43.737Z,9.70
2023-02-13T10:00:29.641Z,9.70
2023-02-13T10:02:56.868Z,9.60
2023-02-13T10:05:43.030Z,9.70
2023-02-13T10:08:19.430Z,9.70
2023-02-13T10:10:53.696Z,9.60
2023-02-13T10:14:02.926Z,9.60
2023-02-13T10:16:45.198Z,9.60
2023-02-13T10:19:52.922Z,9.60
2023-02-13T10:22:33.084Z,9.60
2023-02-13T10:25:10.746Z,9.60
2023-02-13T10:27:46.032Z,9.70
2023-02-13T10:30:32.221Z,9.70
2023-02-13T10:33:21.968Z,9.70
2023-02-13T10:36:21.269Z,9.70
2023-02-13T10:39:02.478Z,9.70
2023-02-13T10:41:32.632Z,9.70
2023-02-13T10:44:12.590Z,9.70
2023-02-13T10:47:16.950Z,9.70
2023-02-13T10:49:44.282Z,9.70
2023-02-13T10:52:27.023Z,9.80
2023-02-13T10:55:05.688Z,9.90
2023-02-13T10:57:44.115Z,10.10
2023-02-13T11:00:31.583Z,10.30
2023-02-13T11:03:00.156Z,10.50
2023-02-13T11:05:40.094Z,10.60
2023-02-13T11:08:21.827Z,10.70
2023-02-13T11:10:50.265Z,10.90
2023-02-13T11:13:23.822Z,11.10
2023-02-13T11:16:13.922Z,11.30
2023-02-13T11:18:49.786Z,11.40
2023-02-13T11:21:22.382Z,11.50
2023-02-13T11:23:56.280Z,11.50
2023-02-13T11:26:43.841Z,11.60
2023-02-13T11:29:30.438Z,11.70
2023-02-13T11:32:03.379Z,11.80
2023-02-13T11:34:32.719Z,11.70
2023-02-13T11:37:21.013Z,11.70
2023-02-13T11:39:51.766Z,11.70
2023-02-13T11:42:25.082Z,11.70
2023-02-13T11:44:55.903Z,11.60
2023-02-13T11:47:42.145Z,11.50
2023-02-13T11:50:21.799Z,11.50
2023-02-13T11:52:56.637Z,11.50
2023-02-13T11:55:48.700Z,11.50
2023-02-13T11:58:16.420Z,11.50
2023-02-13T12:00:44.337Z,11.50
2023-02-13T12:03:29.225Z,11.50
2023-02-13T12:06:15.569Z,11.50
2023-02-13T12:08:46.446Z,11.50
2023-02-13T12:11:41.049Z,11.60
2023-02-13T12:14:16.521Z,11.60
2023-02-13T12:17:01.050Z,11.60
2023-02-13T12:19:39.368Z,11.50
2023-02-13T12:22:35.246Z,11.60
2023-02-13T12:25:41.765Z,11.50
2023-02-13T12:28:20.278Z,11.40
2023-02-13T12:31:21.328Z,11.30
2023-02-13T12:34:15.704Z,11.20
2023-02-13T12:37:10.293Z,11.30
2023-02-13T12:39:46.231Z,11.30
2023-02-13T12:42:26.557Z,11.40
2023-02-13T12:45:14.942Z,11.30
2023-02-13T12:48:21.820Z,11.30
2023-02-13T12:50:53.952Z,11.20
2023-02-13T12:53:46.498Z,11.10
2023-02-13T12:56:38.648Z,11.10
2023-02-13T12:59:17.456Z,11.00
2023-02-13T13:02:09.348Z,11.00
2023-02-13T13:04:55.496Z,10.90
2023-02-13T13:07:31.910Z,10.90
2023-02-13T13:10:27.216Z,10.90
2023-02-13T13:13:03.676Z,10.80
2023-02-13T13:15:45.915Z,10.70
2023-02-13T13:18:36.602Z,10.70
2023-02-13T13:21:34.964Z,10.60
2023-02-13T13:24:14.770Z,10.70
2023-02-13T13:26:49.232Z,10.80
2023-02-13T13:29:32.778Z,10.90
2023-02-13T13:32:07.368Z,11.10
2023-02-13T13:34:37.302Z,11.10
2023-02-13T13:37:21.185Z,11.10
2023-02-13T13:40:23.853Z,11.00
2023-02-13T13:43:23.538Z,11.00
2023-02-13T13:46:09.164Z,11.10
2023-02-13T13:48:49.781Z,11.20
2023-02-13T13:51:18.970Z,11.30
2023-02-13T13:54:07.564Z,11.40
2023-02-13T13:56:53.128Z,11.50
2023-02-13T13:59:38.656Z,11.70
2023-02-13T14:02:18.682Z,11.70
2023-02-13T14:04:57.964Z,11.70
2023-02-13T14:07:25.366Z,11.70
2023-02-13T14:09:52.872Z,11.80
2023-02-13T14:12:29.035Z,11.80
2023-02-13T14:14:57.745Z,11.80
2023-02-13T14:17:43.510Z,11.80
2023-02-13T14:20:31.629Z,11.70
2023-02-13T14:23:17.104Z,11.70
2023-02-13T14:25:45.122Z,11.60
2023-02-13T14:28:25.258Z,11.50
2023-02-13T14:31:04.527Z,11.50
2023-02-13T14:33:32.801Z,11.50
2023-02-13T14:36:21.835Z,11.50
2023-02-13T14:38:57.211Z,11.40
2023-02-13T14:41:43.833Z,11.30
2023-02-13T14:44:40.373Z,11.30
2023-02-13T14:47:30.337Z,11.30
2023-02-13T14:49:59.582Z,11.20
2023-02-13T14:52:32.704Z,11.20
2023-02-13T14:55:04.804Z,11.10
2023-02-13T14:57:42.901Z,11.10
2023-02-13T15:00:28.376Z,11.00
2023-02-13T15:03:02.729Z,11.00
2023-02-13T15:05:34.090Z,11.00
2023-02-13T15:08:21.012Z,11.00
2023-02-13T15:10:53.770Z,11.00
2023-02-13T15:13:37.274Z,11.00
2023-02-13T15:16:10.220Z,11.00
2023-02-13T15:18:52.898Z,11.00
2023-02-13T15:21:33.249Z,10.90
2023-02-13T15:24:00.540Z,10.80
2023-02-13T15:26:29.188Z,10.70
2023-02-13T15:29:02.250Z,10.70
2023-02-13T15:31:34.745Z,10.60
2023-02-13T15:34:02.089Z,10.60
2023-02-13T15:36:39.464Z,10.60
2023-02-13T15:39:09.952Z,10.60
2023-02-13T15:41:44.930Z,10.50
2023-02-13T15:44:32.839Z,10.40
2023-02-13T15:47:22.775Z,10.40
2023-02-13T15:49:50.524Z,10.30
2023-02-13T15:52:32.521Z,10.30
2023-02-13T15:55:00.421Z,10.20
2023-02-13T15:57:32.755Z,10.30
2023-02-13T16:00:01.577Z,10.20
2023-02-13T16:02:46.341Z,10.20
2023-02-13T16:05:17.149Z,10.20
2023-02-13T16:07:50.269Z,10.20
2023-02-13T16:10:33.030Z,10.20
2023-02-13T16:13:06.790Z,10.20
2023-02-13T16:15:37.492Z,10.10
2023-02-13T16:18:06.311Z,10.20
2023-02-13T16:20:35.234Z,10.20
2023-02-13T16:23:07.487Z,10.10
2023-02-13T16:25:38.180Z,10.10
2023-02-13T16:28:19.457Z,10.10
2023-02-13T16:30:59.664Z,10.10
2023-02-13T16:33:32.075Z,10.10
2023-02-13T16:36:10.230Z,10.10
2023-02-13T16:38:40.381Z,10.10
2023-02-13T16:41:19.964Z,10.10
2023-02-13T16:43:49.278Z,10.10
2023-02-13T16:46:21.963Z,10.10
2023-02-13T16:49:11.105Z,10.00
2023-02-13T16:51:38.807Z,10.00
2023-02-13T16:54:12.210Z,10.00
2023-02-13T16:56:56.646Z,10.00
2023-02-13T16:59:48.165Z,10.00
2023-02-13T17:02:28.750Z,10.00
2023-02-13T17:05:08.356Z,10.00
2023-02-13T17:07:41.658Z,9.90
2023-02-13T17:10:27.348Z,9.90
2023-02-13T17:13:01.455Z,9.90
2023-02-13T17:15:31.241Z,10.00
2023-02-13T17:17:58.862Z,10.00
2023-02-13T17:20:29.641Z,9.90
2023-02-13T17:23:00.305Z,9.90
2023-02-13T17:25:32.237Z,9.90
2023-02-13T17:28:12.166Z,9.90
2023-02-13T17:30:39.940Z,10.00
2023-02-13T17:33:13.967Z,10.00
2023-02-13T17:35:41.432Z,9.90
2023-02-13T17:38:10.138Z,9.90
2023-02-13T17:40:37.591Z,9.90
2023-02-13T17:43:05.144Z,9.80
2023-02-13T17:45:34.391Z,9.80
2023-02-13T17:48:01.849Z,9.80
2023-02-13T17:50:31.536Z,9.80
2023-02-13T17:53:03.960Z,9.80
2023-02-13T17:55:33.419Z,9.80
2023-02-13T17:58:01.167Z,9.70
2023-02-13T18:00:31.352Z,9.70
2023-02-13T18:03:00.657Z,9.70
2023-02-13T18:05:28.650Z,9.80
2023-02-13T18:07:56.086Z,9.70
2023-02-13T18:10:26.563Z,9.70
2023-02-13T18:12:56.821Z,9.70
2023-02-13T18:15:24.466Z,9.70
2023-02-13T18:17:51.761Z,9.80
2023-02-13T18:20:21.367Z,9.80
2023-02-13T18:22:52.446Z,9.70
2023-02-13T18:25:20.716Z,9.70
2023-02-13T18:27:48.555Z,9.70
2023-02-13T18:30:19.016Z,9.60
2023-02-13T18:32:50.886Z,9.60
2023-02-13T18:35:18.968Z,9.70
2023-02-13T18:37:46.313Z,9.70
2023-02-13T18:40:15.159Z,9.60
2023-02-13T18:42:42.549Z,9.70
2023-02-13T18:45:11.953Z,9.60
2023-02-13T18:47:40.225Z,9.60
2023-02-13T18:50:08.869Z,9.50
2023-02-13T18:52:36.479Z,9.50
2023-02-13T18:55:06.812Z,9.50
2023-02-13T18:57:34.198Z,9.50
2023-02-13T19:00:01.906Z,9.50
2023-02-13T19:02:30.428Z,9.40
2023-02-13T19:04:57.708Z,9.40
2023-02-13T19:07:24.937Z,9.40
2023-02-13T19:09:52.220Z,9.40
2023-02-13T19:12:19.475Z,9.40
2023-02-13T19:14:47.734Z,9.40
2023-02-13T19:17:14.979Z,9.40
2023-02-13T19:19:46.245Z,9.40
2023-02-13T19:22:13.879Z,9.40
2023-02-13T19:24:41.700Z,9.40
2023-02-13T19:27:09.007Z,9.40
2023-02-13T19:29:36.250Z,9.40
2023-02-13T19:32:04.087Z,9.40
2023-02-13T19:34:31.404Z,9.40
2023-02-13T19:36:58.662Z,9.50
2023-02-13T19:39:25.982Z,9.50
2023-02-13T19:41:53.235Z,9.50
2023-02-13T19:44:21.014Z,9.50
2023-02-13T19:46:48.295Z,9.50
2023-02-13T19:49:16.618Z,9.40
2023-02-13T19:51:46.114Z,9.40
2023-02-13T19:54:13.441Z,9.40
2023-02-13T19:56:41.286Z,9.40
2023-02-13T19:59:12.191Z,9.40
2023-02-13T20:01:42.803Z,9.40
2023-02-13T20:04:11.736Z,9.40
2023-02-13T20:06:39.974Z,9.30
2023-02-13T20:09:11.341Z,9.30
2023-02-13T20:11:40.594Z,9.30
2023-02-13T20:14:11.484Z,9.40
2023-02-13T20:16:39.300Z,9.40
2023-02-13T20:19:09.719Z,9.40
2023-02-13T20:21:38.259Z,9.40
2023-02-13T20:24:05.904Z,9.40
2023-02-13T20:26:34.080Z,9.30
2023-02-13T20:29:01.920Z,9.30
2023-02-13T20:31:30.545Z,9.20
2023-02-13T20:33:59.066Z,9.20
2023-02-13T20:36:29.417Z,9.20
2023-02-13T20:39:02.010Z,9.20
2023-02-13T20:41:31.934Z,9.20
2023-02-13T20:44:01.914Z,9.20
2023-02-13T20:46:30.988Z,9.20
2023-02-13T20:48:58.611Z,9.20
2023-02-13T20:51:26.332Z,9.10
2023-02-13T20:53:54.760Z,9.00
2023-02-13T20:56:25.308Z,9.00
2023-02-13T20:58:54.797Z,9.00
2023-02-13T21:01:28.486Z,9.00
2023-02-13T21:03:56.034Z,9.00
2023-02-13T21:06:32.949Z,9.00
2023-02-13T21:09:01.027Z,9.00
2023-02-13T21:11:29.522Z,9.00
2023-02-13T21:13:58.508Z,8.90
2023-02-13T21:16:29.163Z,8.90
2023-02-13T21:18:59.792Z,8.90
2023-02-13T21:21:31.563Z,8.80
2023-02-13T21:24:07.644Z,8.70
2023-02-13T21:26:36.281Z,8.70
2023-02-13T21:29:05.809Z,8.60
2023-02-13T21:31:36.560Z,8.50
2023-02-13T21:34:08.729Z,8.50
2023-02-13T21:36:37.177Z,8.40
2023-02-13T21:39:07.026Z,8.40
2023-02-13T21:41:34.730Z,8.30
2023-02-13T21:44:02.152Z,8.20
2023-02-13T21:46:31.477Z,8.20
2023-02-13T21:49:11.835Z,8.10
2023-02-13T21:51:39.165Z,8.10
2023-02-13T21:54:06.952Z,8.10
2023-02-13T21:56:36.757Z,8.10
2023-02-13T21:59:05.361Z,8.00
2023-02-13T22:01:46.697Z,8.00
2023-02-13T22:04:14.539Z,7.90
2023-02-13T22:06:42.204Z,7.70
2023-02-13T22:09:12.182Z,7.70
2023-02-13T22:11:40.097Z,7.60
2023-02-13T22:14:11.222Z,7.60
2023-02-13T22:16:39.126Z,7.50
2023-02-13T22:19:07.347Z,7.50
2023-02-13T22:21:36.326Z,7.60
2023-02-13T22:24:03.800Z,7.50
2023-02-13T22:26:34.438Z,7.50
2023-02-13T22:29:06.584Z,7.50
2023-02-13T22:31:34.974Z,7.50
2023-02-13T22:34:04.620Z,7.50
2023-02-13T22:36:33.982Z,7.50
2023-02-13T22:39:01.363Z,7.50
2023-02-13T22:41:29.152Z,7.50
2023-02-13T22:43:57.033Z,7.60
2023-02-13T22:46:30.814Z,7.50
2023-02-13T22:48:59.550Z,7.50
2023-02-13T22:51:29.670Z,7.50
2023-02-13T22:53:58.809Z,7.50
2023-02-13T22:56:27.672Z,7.50
2023-02-13T22:58:55.066Z,7.50
2023-02-13T23:01:24.443Z,7.50
2023-02-13T23:03:52.011Z,7.50
2023-02-13T23:06:20.115Z,7.50
2023-02-13T23:08:52.278Z,7.40
2023-02-13T23:11:40.627Z,7.40
2023-02-13T23:14:08.180Z,7.20
2023-02-13T23:16:55.396Z,7.00
2023-02-13T23:19:22.665Z,6.90
2023-02-13T23:21:49.907Z,6.80
2023-02-13T23:24:17.362Z,6.70
2023-02-13T23:26:44.905Z,6.60
2023-02-13T23:29:12.338Z,6.50
2023-02-13T23:31:39.833Z,6.50
2023-02-13T23:34:07.156Z,6.40
2023-02-13T23:36:34.539Z,6.40
2023-02-13T23:39:01.890Z,6.30
2023-02-13T23:41:29.175Z,6.20
2023-02-13T23:43:56.453Z,6.20
2023-02-13T23:46:23.907Z,6.20
2023-02-13T23:48:51.801Z,6.10
2023-02-13T23:51:21.372Z,6.10
2023-02-13T23:53:49.379Z,6.10
2023-02-13T23:56:16.627Z,6.00
2023-02-13T23:58:43.880Z,6.00
